createdAt,value
2022-11-29T00:01:53.412Z,23.83
2022-11-29T00:04:38.980Z,17.38
2022-11-29T00:07:24.462Z,11.27
2022-11-29T00:10:10.190Z,16.35
2022-11-29T00:12:55.876Z,22.55
2022-11-29T00:15:41.619Z,23.23
2022-11-29T00:18:27.056Z,21.30
2022-11-29T00:21:12.773Z,21.50
2022-11-29T00:23:58.255Z,26.05
2022-11-29T00:26:43.835Z,33.42
2022-11-29T00:29:30.303Z,17.65
2022-11-29T00:32:15.787Z,18.92
2022-11-29T00:35:06.669Z,17.08
2022-11-29T00:37:55.139Z,17.77
2022-11-29T00:40:40.252Z,14.40
2022-11-29T00:43:25.910Z,20.58
2022-11-29T00:46:12.851Z,15.27
2022-11-29T00:48:58.166Z,17.33
2022-11-29T00:51:43.621Z,20.30
2022-11-29T00:54:29.112Z,18.65
2022-11-29T00:57:14.524Z,31.70
2022-11-29T01:00:00.006Z,26.42
2022-11-29T01:02:45.419Z,26.85
2022-11-29T01:05:32.125Z,23.13
2022-11-29T01:08:17.834Z,18.85
2022-11-29T01:11:12.302Z,16.85
2022-11-29T01:14:00.256Z,27.02
2022-11-29T01:16:45.742Z,19.95
2022-11-29T01:19:31.121Z,23.63
2022-11-29T01:22:16.644Z,27.27
2022-11-29T01:25:02.786Z,27.75
2022-11-29T01:27:48.272Z,34.17
2022-11-29T01:30:33.446Z,22.63
2022-11-29T01:33:18.890Z,30.45
2022-11-29T01:36:05.882Z,26.33
2022-11-29T01:38:52.162Z,29.95
2022-11-29T01:41:37.987Z,33.80
2022-11-29T01:44:23.401Z,26.42
2022-11-29T01:47:11.193Z,29.77
2022-11-29T01:49:56.882Z,31.90
2022-11-29T01:52:42.831Z,27.55
2022-11-29T01:55:28.686Z,25.25
2022-11-29T01:58:15.339Z,34.05
2022-11-29T02:01:01.718Z,34.28
2022-11-29T02:03:47.093Z,16.73
2022-11-29T02:06:33.757Z,33.20
2022-11-29T02:09:21.914Z,27.50
2022-11-29T02:12:20.396Z,26.13
2022-11-29T02:15:54.209Z,23.67
2022-11-29T02:19:00.517Z,23.33
2022-11-29T02:21:54.081Z,32.55
2022-11-29T02:24:51.726Z,18.88
2022-11-29T02:28:16.414Z,27.65
2022-11-29T02:31:24.018Z,20.50
2022-11-29T02:34:12.049Z,25.52
2022-11-29T02:37:16.257Z,27.52
2022-11-29T02:40:26.216Z,29.17
2022-11-29T02:43:33.669Z,26.15
2022-11-29T02:46:34.547Z,24.48
2022-11-29T02:49:26.151Z,18.80
2022-11-29T02:52:21.107Z,27.05
2022-11-29T02:55:15.395Z,24.35
2022-11-29T02:58:06.944Z,23.95
2022-11-29T03:01:10.657Z,18.70
2022-11-29T03:04:22.053Z,16.85
2022-11-29T03:07:13.655Z,21.17
2022-11-29T03:10:07.983Z,23.25
2022-11-29T03:12:55.009Z,25.52
2022-11-29T03:16:09.698Z,23.38
2022-11-29T03:19:14.224Z,17.95
2022-11-29T03:22:08.742Z,17.75
2022-11-29T03:25:00.087Z,26.83
2022-11-29T03:27:59.947Z,21.95
2022-11-29T03:30:59.011Z,19.52
2022-11-29T03:33:50.294Z,17.30
2022-11-29T03:37:04.122Z,20.88
2022-11-29T03:40:14.467Z,22.80
2022-11-29T03:43:05.985Z,22.17
2022-11-29T03:46:02.310Z,19.90
2022-11-29T03:49:01.580Z,25.30
2022-11-29T03:51:58.685Z,29.58
2022-11-29T03:55:05.719Z,14.88
2022-11-29T03:58:03.663Z,21.00
2022-11-29T04:00:49.071Z,23.08
2022-11-29T04:03:52.813Z,20.17
2022-11-29T04:07:00.640Z,20.45
2022-11-29T04:10:27.315Z,20.77
2022-11-29T04:13:31.029Z,20.02
2022-11-29T04:17:04.367Z,21.95
2022-11-29T04:20:11.658Z,17.27
2022-11-29T04:23:34.481Z,18.38
2022-11-29T04:26:53.801Z,19.00
2022-11-29T04:33:02.579Z,14.68
2022-11-29T04:35:48.852Z,41.58
2022-11-29T04:38:46.270Z,20.63
2022-11-29T04:41:52.753Z,19.30
2022-11-29T04:44:53.603Z,14.70
2022-11-29T04:47:52.815Z,14.32
2022-11-29T04:51:12.985Z,16.77
2022-11-29T04:54:14.835Z,18.00
2022-11-29T04:57:17.973Z,23.80
2022-11-29T05:00:12.709Z,22.80
2022-11-29T05:03:16.577Z,20.95
2022-11-29T05:06:19.470Z,17.10
2022-11-29T05:09:24.581Z,21.60
2022-11-29T05:12:36.479Z,19.52
2022-11-29T05:16:14.728Z,27.55
2022-11-29T05:19:26.080Z,20.58
2022-11-29T05:22:25.958Z,13.13
2022-11-29T05:25:17.463Z,23.83
2022-11-29T05:28:17.811Z,23.85
2022-11-29T05:31:37.050Z,16.23
2022-11-29T05:35:04.723Z,19.83
2022-11-29T05:37:57.010Z,25.95
2022-11-29T05:41:01.440Z,23.08
2022-11-29T05:43:52.880Z,21.35
2022-11-29T05:46:58.687Z,18.52
2022-11-29T05:49:58.327Z,21.58
2022-11-29T05:52:59.563Z,17.27
2022-11-29T05:56:10.294Z,19.40
2022-11-29T05:59:08.865Z,21.08
2022-11-29T06:02:09.679Z,21.60
2022-11-29T06:05:22.982Z,20.20
2022-11-29T06:08:22.215Z,25.35
2022-11-29T06:11:30.767Z,22.95
2022-11-29T06:14:41.667Z,18.90
2022-11-29T06:17:35.697Z,19.65
2022-11-29T06:20:48.632Z,31.73
2022-11-29T06:23:59.820Z,16.85
2022-11-29T06:27:15.046Z,24.23
2022-11-29T06:30:13.331Z,11.50
2022-11-29T06:33:15.305Z,16.85
2022-11-29T06:36:22.230Z,12.77
2022-11-29T06:39:09.904Z,10.52
2022-11-29T06:41:56.145Z,17.10
2022-11-29T06:44:42.923Z,21.83
2022-11-29T06:47:36.851Z,17.75
2022-11-29T06:50:43.750Z,13.18
2022-11-29T06:53:41.363Z,16.15
2022-11-29T06:56:47.012Z,20.33
2022-11-29T06:59:50.570Z,17.25
2022-11-29T07:02:45.326Z,18.75
2022-11-29T07:05:33.081Z,18.33
2022-11-29T07:08:21.645Z,21.73
2022-11-29T07:11:07.332Z,22.70
2022-11-29T07:13:53.354Z,17.83
2022-11-29T07:17:03.835Z,20.08
2022-11-29T07:20:09.668Z,21.77
2022-11-29T07:23:01.544Z,18.10
2022-11-29T07:26:16.616Z,15.98
2022-11-29T07:29:19.341Z,9.30
2022-11-29T07:32:10.965Z,10.07
2022-11-29T07:35:16.013Z,20.83
2022-11-29T07:38:20.315Z,33.28
2022-11-29T07:41:10.060Z,28.00
2022-11-29T07:44:34.350Z,46.15
2022-11-29T07:47:19.897Z,49.85
2022-11-29T07:50:05.655Z,43.85
2022-11-29T07:52:51.273Z,36.13
2022-11-29T07:55:37.454Z,9.73
2022-11-29T07:58:23.225Z,7.05
2022-11-29T08:01:08.922Z,5.82
2022-11-29T08:03:54.519Z,6.45
2022-11-29T08:06:39.908Z,5.05
2022-11-29T08:09:25.802Z,4.57
2022-11-29T08:12:11.232Z,5.28
2022-11-29T08:14:57.006Z,11.30
2022-11-29T08:17:42.366Z,5.82
2022-11-29T08:20:27.997Z,7.55
2022-11-29T08:23:15.621Z,5.20
2022-11-29T08:26:02.856Z,10.15
2022-11-29T08:28:52.859Z,7.88
2022-11-29T08:31:38.460Z,7.80
2022-11-29T08:34:24.438Z,10.25
2022-11-29T08:37:10.012Z,5.32
2022-11-29T08:39:56.248Z,5.25
2022-11-29T08:42:41.726Z,7.43
2022-11-29T08:45:27.190Z,5.65
2022-11-29T08:48:14.137Z,6.18
2022-11-29T08:50:59.835Z,12.35
2022-11-29T08:53:51.675Z,11.68
2022-11-29T08:59:45.014Z,7.13
2022-11-29T09:02:30.189Z,7.60
2022-11-29T09:05:16.097Z,5.57
2022-11-29T09:08:01.822Z,8.43
2022-11-29T09:10:47.658Z,8.13
2022-11-29T09:13:32.892Z,7.82
2022-11-29T09:16:20.853Z,10.27
2022-11-29T09:19:07.652Z,9.07
2022-11-29T09:21:53.955Z,9.88
2022-11-29T09:24:39.333Z,6.95
2022-11-29T09:27:24.768Z,8.45
2022-11-29T09:30:10.586Z,7.22
2022-11-29T09:32:56.264Z,8.25
2022-11-29T09:35:42.562Z,12.02
2022-11-29T09:38:28.166Z,7.38
2022-11-29T09:41:32.021Z,15.65
2022-11-29T09:44:26.423Z,23.77
2022-11-29T09:47:41.773Z,21.10
2022-11-29T09:50:40.827Z,18.02
2022-11-29T09:53:34.873Z,7.78
2022-11-29T09:56:42.247Z,10.45
2022-11-29T09:59:35.391Z,12.13
2022-11-29T10:02:45.688Z,12.93
2022-11-29T10:06:00.467Z,9.55
2022-11-29T10:08:57.892Z,6.63
2022-11-29T10:12:19.066Z,10.75
2022-11-29T10:15:22.924Z,6.03
2022-11-29T10:18:23.978Z,9.07
2022-11-29T10:21:35.248Z,10.10
2022-11-29T10:24:24.746Z,7.43
2022-11-29T10:27:19.711Z,10.50
2022-11-29T10:30:07.098Z,12.18
2022-11-29T10:33:00.452Z,9.15
2022-11-29T10:35:49.264Z,9.88
2022-11-29T10:38:34.993Z,7.93
2022-11-29T10:41:22.920Z,20.55
2022-11-29T10:44:14.610Z,11.10
2022-11-29T10:47:09.276Z,14.23
2022-11-29T10:49:56.993Z,13.13
2022-11-29T10:52:42.904Z,12.30
2022-11-29T10:55:45.027Z,13.38
2022-11-29T10:58:31.999Z,8.73
2022-11-29T11:04:09.975Z,16.02
2022-11-29T11:07:01.807Z,11.27
2022-11-29T11:09:49.787Z,11.25
2022-11-29T11:12:39.133Z,10.75
2022-11-29T11:15:24.454Z,10.95
2022-11-29T11:18:21.288Z,12.45
2022-11-29T11:21:11.002Z,11.50
2022-11-29T11:23:58.444Z,12.73
2022-11-29T11:26:45.250Z,7.60
2022-11-29T11:29:40.882Z,8.02
2022-11-29T11:32:26.711Z,13.93
2022-11-29T11:35:31.374Z,11.20
2022-11-29T11:38:17.644Z,14.48
2022-11-29T11:41:07.604Z,7.57
2022-11-29T11:44:00.416Z,11.63
2022-11-29T11:46:56.504Z,9.18
2022-11-29T11:49:47.911Z,10.73
2022-11-29T11:52:50.410Z,13.85
2022-11-29T11:55:53.420Z,8.00
2022-11-29T11:58:49.883Z,9.68
2022-11-29T12:01:39.400Z,12.23
2022-11-29T12:04:37.211Z,19.35
2022-11-29T12:11:07.790Z,8.70
2022-11-29T12:13:57.335Z,4.82
2022-11-29T12:16:50.039Z,9.82
2022-11-29T12:19:46.877Z,6.47
2022-11-29T12:22:46.588Z,10.68
2022-11-29T12:25:58.898Z,10.15
2022-11-29T12:28:46.306Z,18.27
2022-11-29T12:31:59.621Z,15.15
2022-11-29T12:35:29.356Z,17.23
2022-11-29T12:38:21.323Z,9.23
2022-11-29T12:41:35.109Z,8.82
2022-11-29T12:44:41.721Z,11.20
2022-11-29T12:48:03.131Z,10.93
2022-11-29T12:51:33.041Z,14.88
2022-11-29T12:54:44.417Z,9.35
2022-11-29T12:57:57.398Z,7.13
2022-11-29T13:00:56.053Z,15.27
2022-11-29T13:03:57.629Z,12.88
2022-11-29T13:07:17.332Z,11.05
2022-11-29T13:10:42.998Z,7.60
2022-11-29T13:13:38.926Z,9.68
2022-11-29T13:16:49.593Z,18.52
2022-11-29T13:19:42.929Z,13.38
2022-11-29T13:22:54.336Z,18.60
2022-11-29T13:25:42.674Z,31.75
2022-11-29T13:28:33.007Z,14.63
2022-11-29T13:31:23.598Z,10.80
2022-11-29T13:34:20.048Z,16.30
2022-11-29T13:37:36.797Z,15.18
2022-11-29T13:40:48.789Z,10.05
2022-11-29T13:43:51.983Z,9.82
2022-11-29T13:46:57.823Z,14.60
2022-11-29T13:50:04.298Z,15.85
2022-11-29T13:52:49.767Z,14.65
2022-11-29T13:55:48.787Z,17.80
2022-11-29T13:58:37.422Z,12.95
2022-11-29T14:01:24.746Z,19.65
2022-11-29T14:04:41.648Z,13.45
2022-11-29T14:07:27.612Z,10.73
2022-11-29T14:10:29.046Z,14.02
2022-11-29T14:13:16.183Z,11.40
2022-11-29T14:16:05.145Z,13.47
2022-11-29T14:19:04.285Z,20.65
2022-11-29T14:21:58.834Z,10.65
2022-11-29T14:24:57.199Z,11.23
2022-11-29T14:27:54.185Z,17.02
2022-11-29T14:30:42.311Z,27.85
2022-11-29T14:33:28.033Z,30.67
2022-11-29T14:36:33.337Z,25.17
2022-11-29T14:39:31.514Z,95.25
2022-11-29T14:42:18.822Z,84.95
2022-11-29T14:45:26.017Z,79.13
2022-11-29T14:48:30.276Z,167.27
2022-11-29T14:51:18.793Z,44.25
2022-11-29T14:54:19.933Z,43.65
2022-11-29T14:57:45.831Z,50.80
2022-11-29T15:00:37.209Z,46.58
2022-11-29T15:03:50.226Z,32.72
2022-11-29T15:06:43.403Z,32.85
2022-11-29T15:09:34.941Z,15.50
2022-11-29T15:12:27.081Z,22.33
2022-11-29T15:15:31.050Z,17.85
2022-11-29T15:18:29.152Z,42.47
2022-11-29T15:21:31.518Z,48.05
2022-11-29T15:24:18.654Z,46.78
2022-11-29T15:27:04.878Z,36.05
2022-11-29T15:29:50.649Z,23.02
2022-11-29T15:32:37.410Z,13.43
2022-11-29T15:35:23.852Z,37.13
2022-11-29T15:38:18.098Z,38.97
2022-11-29T15:41:03.753Z,35.25
2022-11-29T15:43:57.724Z,21.80
2022-11-29T15:46:43.346Z,20.02
2022-11-29T15:49:30.672Z,17.00
2022-11-29T15:52:28.883Z,18.75
2022-11-29T15:58:08.508Z,15.43
2022-11-29T16:00:55.777Z,10.60
2022-11-29T16:03:46.485Z,12.82
2022-11-29T16:06:41.605Z,11.18
2022-11-29T16:09:37.809Z,14.40
2022-11-29T16:12:23.027Z,9.15
2022-11-29T16:15:26.396Z,8.07
2022-11-29T16:18:16.878Z,13.60
2022-11-29T16:21:06.111Z,10.07
2022-11-29T16:23:51.938Z,12.55
2022-11-29T16:26:41.848Z,10.63
2022-11-29T16:29:30.508Z,11.52
2022-11-29T16:32:24.371Z,19.67
2022-11-29T16:35:15.000Z,38.10
2022-11-29T16:38:04.593Z,25.08
2022-11-29T16:41:07.664Z,14.27
2022-11-29T16:43:58.306Z,11.13
2022-11-29T16:46:43.737Z,19.45
2022-11-29T16:49:36.280Z,12.00
2022-11-29T16:52:30.422Z,13.30
2022-11-29T16:55:17.718Z,9.73
2022-11-29T16:58:04.369Z,12.82
2022-11-29T17:00:49.984Z,16.58
2022-11-29T17:03:35.831Z,14.38
2022-11-29T17:06:23.398Z,19.95
2022-11-29T17:09:19.732Z,11.77
2022-11-29T17:12:05.133Z,12.70
2022-11-29T17:14:50.544Z,13.55
2022-11-29T17:17:36.321Z,17.02
2022-11-29T17:20:21.804Z,16.83
2022-11-29T17:23:09.114Z,20.60
2022-11-29T17:25:59.000Z,12.18
2022-11-29T17:28:46.351Z,11.20
2022-11-29T17:31:32.029Z,14.93
2022-11-29T17:34:17.708Z,16.05
2022-11-29T17:37:03.308Z,17.70
2022-11-29T17:39:49.520Z,18.38
2022-11-29T17:42:35.067Z,14.15
2022-11-29T17:45:20.615Z,24.08
2022-11-29T17:48:06.184Z,71.97
2022-11-29T17:50:51.819Z,26.45
2022-11-29T17:53:37.072Z,33.95
2022-11-29T17:56:25.092Z,45.38
2022-11-29T17:59:10.776Z,21.33
2022-11-29T18:01:56.601Z,24.40
2022-11-29T18:04:44.000Z,19.85
2022-11-29T18:07:29.188Z,34.83
2022-11-29T18:10:14.775Z,35.92
2022-11-29T18:13:00.125Z,17.58
2022-11-29T18:15:45.578Z,27.95
2022-11-29T18:18:31.555Z,53.40
2022-11-29T18:21:19.965Z,62.63
2022-11-29T18:24:07.152Z,24.08
2022-11-29T18:26:52.923Z,17.23
2022-11-29T18:29:39.467Z,26.42
2022-11-29T18:32:24.851Z,30.05
2022-11-29T18:35:12.025Z,24.67
2022-11-29T18:38:14.702Z,30.15
2022-11-29T18:41:07.656Z,21.23
2022-11-29T18:44:00.861Z,24.38
2022-11-29T18:46:47.637Z,23.90
2022-11-29T18:49:33.420Z,22.67
2022-11-29T18:52:19.392Z,45.35
2022-11-29T18:55:05.463Z,33.95
2022-11-29T18:57:51.585Z,24.25
2022-11-29T19:00:37.183Z,21.58
2022-11-29T19:03:23.983Z,24.08
2022-11-29T19:06:12.316Z,19.27
2022-11-29T19:09:00.947Z,22.20
2022-11-29T19:11:46.153Z,14.77
2022-11-29T19:14:32.490Z,13.68
2022-11-29T19:17:18.276Z,16.55
2022-11-29T19:20:04.421Z,15.45
2022-11-29T19:22:50.035Z,20.08
2022-11-29T19:25:35.515Z,17.73
2022-11-29T19:28:20.871Z,28.63
2022-11-29T19:31:07.541Z,20.08
2022-11-29T19:33:55.277Z,24.17
2022-11-29T19:39:29.989Z,22.63
2022-11-29T19:42:15.574Z,26.42
2022-11-29T19:45:16.504Z,28.58
2022-11-29T19:48:03.398Z,25.52
2022-11-29T19:50:48.690Z,23.00
2022-11-29T19:53:35.109Z,23.25
2022-11-29T19:56:22.193Z,14.18
2022-11-29T19:59:08.420Z,16.50
2022-11-29T20:01:54.109Z,14.85
2022-11-29T20:04:39.605Z,23.10
2022-11-29T20:07:28.236Z,16.42
2022-11-29T20:10:14.093Z,30.42
2022-11-29T20:12:59.789Z,17.02
2022-11-29T20:15:45.481Z,12.77
2022-11-29T20:18:34.299Z,16.08
2022-11-29T20:21:31.442Z,24.17
2022-11-29T20:24:17.669Z,16.65
2022-11-29T20:27:03.221Z,21.60
2022-11-29T20:29:51.141Z,18.75
2022-11-29T20:32:37.453Z,31.13
2022-11-29T20:35:23.112Z,24.65
2022-11-29T20:38:29.338Z,32.08
2022-11-29T20:41:21.966Z,25.77
2022-11-29T20:44:10.829Z,24.40
2022-11-29T20:46:56.518Z,21.92
2022-11-29T20:49:42.713Z,24.25
2022-11-29T20:52:45.539Z,31.35
2022-11-29T20:55:31.462Z,28.52
2022-11-29T20:58:19.392Z,33.25
2022-11-29T21:01:05.833Z,37.28
2022-11-29T21:03:51.341Z,23.35
2022-11-29T21:06:38.096Z,28.10
2022-11-29T21:09:23.820Z,24.00
2022-11-29T21:12:10.220Z,18.50
2022-11-29T21:14:56.320Z,32.25
2022-11-29T21:17:42.940Z,31.25
2022-11-29T21:20:28.703Z,26.10
2022-11-29T21:23:22.858Z,18.05
2022-11-29T21:26:16.512Z,26.98
2022-11-29T21:29:19.120Z,35.30
2022-11-29T21:32:05.372Z,31.02
2022-11-29T21:34:51.353Z,27.35
2022-11-29T21:37:37.814Z,24.92
2022-11-29T21:40:24.640Z,24.20
2022-11-29T21:43:10.317Z,30.13
2022-11-29T21:45:55.867Z,19.50
2022-11-29T21:48:42.458Z,26.98
2022-11-29T21:51:27.639Z,19.35
2022-11-29T21:54:13.133Z,38.45
2022-11-29T21:56:59.542Z,32.35
2022-11-29T21:59:45.155Z,25.58
2022-11-29T22:02:30.715Z,23.90
2022-11-29T22:05:16.398Z,19.30
2022-11-29T22:08:02.100Z,20.65
2022-11-29T22:10:47.476Z,23.48
2022-11-29T22:13:32.987Z,20.98
2022-11-29T22:16:18.788Z,21.55
2022-11-29T22:19:05.306Z,17.17
2022-11-29T22:21:57.012Z,23.77
2022-11-29T22:24:42.152Z,18.65
2022-11-29T22:27:27.871Z,23.08
2022-11-29T22:30:13.341Z,24.13
2022-11-29T22:32:58.630Z,21.30
2022-11-29T22:35:44.706Z,16.85
2022-11-29T22:38:30.298Z,26.33
2022-11-29T22:41:16.506Z,33.35
2022-11-29T22:44:02.612Z,23.50
2022-11-29T22:46:47.930Z,16.00
2022-11-29T22:49:33.450Z,26.75
2022-11-29T22:52:19.137Z,18.77
2022-11-29T22:55:05.425Z,10.88
2022-11-29T22:57:53.504Z,20.23
2022-11-29T23:00:44.013Z,21.27
2022-11-29T23:03:32.694Z,18.00
2022-11-29T23:06:21.064Z,18.40
2022-11-29T23:09:12.001Z,12.90
2022-11-29T23:11:57.622Z,19.52
2022-11-29T23:14:42.863Z,22.90
2022-11-29T23:17:28.304Z,21.27
2022-11-29T23:20:13.882Z,24.58
2022-11-29T23:22:59.722Z,19.00
2022-11-29T23:25:49.682Z,23.95
2022-11-29T23:28:36.044Z,16.40
2022-11-29T23:31:22.560Z,18.67
2022-11-29T23:34:08.836Z,19.17
2022-11-29T23:36:54.405Z,19.02
2022-11-29T23:39:39.742Z,19.30
2022-11-29T23:42:25.850Z,18.92
2022-11-29T23:45:11.441Z,18.63
2022-11-29T23:47:57.117Z,11.43
2022-11-29T23:50:43.130Z,16.67
2022-11-29T23:53:34.393Z,23.20
2022-11-29T23:56:21.411Z,15.90
2022-11-29T23:59:08.833Z,15.73
